Flight Track Log - Related Links

Times and Time Zones

All times are in EDT time to prevent confusion due to time zone crossing. See the PDT4328 flight status page for this flight to view local times or setup timezone preferences in your user account.

Time Position Orientation Groundspeed Altitude Reporting Facility
EDT Latitude Longitude Course Direction KTS MPH feet Rate Location/Type
Thu 12:37:00 PM 35.1701 -84.9733 55° Northeast  Level FlightAware Approximate
Thu 12:38:00 PM 35.2066 -84.9190 47° Northeast  Level FlightAware Approximate
Thu 12:39:00 PM 35.2450 -84.8664 50° Northeast  Level FlightAware Approximate
Thu 12:39:20 PM 35.0069 -85.0506 52° Northeast 205 236 7,500  Level Atlanta Center
Thu 12:40:00 PM 35.2822 -84.8124 50° Northeast  Level FlightAware Approximate
Thu 12:40:20 PM 35.0469 -85.0003 46° Northeast 212 244 8,500  Level Atlanta Center
Thu 12:41:00 PM 35.3194 -84.7585 50° Northeast  Level FlightAware Approximate
Thu 12:41:20 PM 35.0869 -84.9475 47° Northeast 212 244 9,500  Level Atlanta Center
Thu 12:42:00 PM 35.3565 -84.7044 50° Northeast  Level FlightAware Approximate
Thu 12:43:00 PM 35.3936 -84.6504 50° Northeast  Level FlightAware Approximate
Thu 12:43:44 PM 35.2006 -84.8039 46° Northeast 262 302 10,000  Level Atlanta Center
Thu 12:44:00 PM 35.4301 -84.5957 52° Northeast  Level FlightAware Approximate
Thu 12:44:44 PM 35.2531 -84.7356 47° Northeast 267 307 10,400  Level Atlanta Center
Thu 12:46:00 PM 35.3304 -84.6947 23° Northeast  Level FlightAware Approximate
Thu 12:46:44 PM 35.3497 -84.6117 23° Northeast 257 296 11,800  Level Atlanta Center
Thu 12:47:44 PM 35.3981 -84.5508 46° Northeast 252 290 12,500 700 Climbing Atlanta Center
Thu 12:48:44 PM 35.4461 -84.4900 46° Northeast 247 284 13,200 800 Climbing Atlanta Center
Thu 12:49:44 PM 35.4922 -84.4289 47° Northeast 247 284 14,100 900 Climbing Atlanta Center
Thu 12:50:44 PM 35.5383 -84.3706 46° Northeast 242 278 15,000 900 Climbing Atlanta Center
Thu 12:51:44 PM 35.5825 -84.3119 47° Northeast 242 278 15,900 900 Climbing Atlanta Center
Thu 12:52:44 PM 35.6264 -84.2558 46° Northeast 237 273 16,800 500 Climbing Atlanta Center
Thu 12:53:44 PM 35.6744 -84.1972 45° Northeast 237 273 16,900 100 Climbing Atlanta Center
Thu 12:54:44 PM 35.7244 -84.1283 48° Northeast 242 278 17,000 50 Climbing Atlanta Center
Thu 12:55:44 PM 35.7767 -84.0617 46° Northeast 252 290 17,000 -50 Level Atlanta Center
Thu 12:56:44 PM 35.8308 -83.9928 46° Northeast 264 304 16,900 -50 Descending Atlanta Center
Thu 12:57:44 PM 35.8850 -83.9208 47° Northeast 271 312 16,900 50 Level Atlanta Center
Thu 12:58:44 PM 35.9017 -83.8261 78° East 271 312 17,000 50 Climbing Atlanta Center
Thu 12:59:44 PM 35.8994 -83.7261 92° East 271 312 17,000 -50 Level Atlanta Center
Thu 01:00:44 PM 35.8992 -83.6286 90° East 278 320 16,900 -50 Descending Atlanta Center
Thu 01:01:44 PM 35.8967 -83.5286 92° East 278 320 16,900 -100 Level Atlanta Center
Thu 01:02:44 PM 35.8942 -83.4314 92° East 283 326 16,700 -600 Descending Atlanta Center
Thu 01:03:44 PM 35.8914 -83.3339 92° East 288 331 15,700 -1,000 Descending Atlanta Center
Thu 01:04:44 PM 35.8889 -83.2364 92° East 288 331 14,700 -1,000 Descending Atlanta Center
Thu 01:05:44 PM 35.8881 -83.1442 91° East 283 326 13,700 -750 Descending Atlanta Center
Thu 01:06:44 PM 35.8856 -83.0672 92° East 247 284 13,200 -350 Descending Atlanta Center
Thu 01:07:44 PM 35.8847 -82.9931 91° East 223 257 13,000 -150 Descending Atlanta Center
Thu 01:08:44 PM 35.8842 -82.9083 90° East 233 268 12,900 -50 Descending Atlanta Center
Thu 01:09:44 PM 35.8811 -82.8239 93° East 239 275 12,900  Level Atlanta Center
Thu 01:10:44 PM 35.8783 -82.7394 92° East 239 275 12,900  Level Atlanta Center
Thu 01:11:44 PM 35.8753 -82.6575 93° East 239 275 12,900 50 Level Atlanta Center
Thu 01:12:44 PM 35.8744 -82.5756 91° East 234 269 13,000 -200 Climbing Atlanta Center
Thu 01:13:44 PM 35.8711 -82.4936 93° East 234 269 12,500 -650 Descending Atlanta Center
Thu 01:14:44 PM 35.8703 -82.4117 91° East 234 269 11,700 -800 Descending Atlanta Center
Thu 01:15:44 PM 35.8669 -82.3322 93° East 234 269 10,900 -400 Descending Atlanta Center
Thu 01:16:44 PM 35.8658 -82.2503 91° East 234 269 10,900 -250 Level Atlanta Center
Thu 01:17:44 PM 35.8625 -82.1683 93° East 234 269 10,400 -700 Descending Atlanta Center
Thu 01:18:44 PM 35.8614 -82.0889 91° East 234 269 9,500 -750 Descending Atlanta Center
Thu 01:19:44 PM 35.8581 -82.0094 93° East 234 269 8,900 -300 Descending Atlanta Center
Thu 01:20:44 PM 35.8400 -81.9433 109° East 217 250 8,900 50 Level Atlanta Center
Thu 01:21:44 PM 35.7972 -81.8806 130° Southeast 211 243 9,000 50 Climbing Atlanta Center
Thu 01:22:44 PM 35.7586 -81.8200 128° Southeast 216 249 9,000 -50 Level Atlanta Center
Thu 01:23:44 PM 35.7200 -81.7647 131° Southeast 222 255 8,900  Descending Atlanta Center
Thu 01:24:53 PM 35.6750 -81.6894 126° Southeast 223 257 9,000 50 Climbing Atlanta Center
Thu 01:25:44 PM 35.6428 -81.6392 128° Southeast 229 264 9,000  Level Atlanta Center
Thu 01:26:44 PM 35.6097 -81.5636 118° Southeast 242 278 9,000 -50 Level Atlanta Center
Thu 01:27:44 PM 35.5586 -81.5114 140° Southeast 242 278 8,900 -550 Descending Atlanta Center
Thu 01:28:44 PM 35.5094 -81.4467 133° Southeast 249 287 7,900 -950 Descending Atlanta Center
Thu 01:29:44 PM 35.5014 -81.3653 97° East 239 275 7,000 -720 Descending Atlanta Center
Thu 01:29:59 PM 35.5114 -81.3472 56° Northeast 255 293 7,000  Level Atlanta Center
Thu 01:30:44 PM 35.5308 -81.2878 68° East 235 270 7,000  Level Atlanta Center
Thu 01:31:00 PM 35.5411 -81.2694 55° Northeast 249 287 7,000  Level Atlanta Center
Thu 01:31:44 PM 35.5458 -81.2031 85° East 249 287 7,000  Level Atlanta Center
Thu 01:32:01 PM 35.5494 -81.1825 78° East 253 291 7,000 -769 Level Atlanta Center
Thu 01:33:02 PM 35.5556 -81.0931 85° East 250 288 6,000 -984 Descending Atlanta Center
Thu 01:34:03 PM 35.5042 -81.0361 138° Southeast 241 277 5,000 -469 Descending Atlanta Center
Thu 01:35:10 PM 35.4447 -80.9900 148° Southeast 238 274 5,000  Level Atlanta Center

Login

Don't have an account? Register now (free) for customized features, flight alerts, and more!